createdAt,value
2022-11-01T05:56:29.757Z,78.73
2022-11-01T06:01:50.834Z,78.85
2022-11-01T06:07:12.043Z,79.08
2022-11-01T06:12:33.068Z,79.00
2022-11-01T06:17:58.454Z,78.80
2022-11-01T06:23:19.454Z,78.61
2022-11-01T06:28:40.510Z,78.47
2022-11-01T06:34:01.088Z,78.55
2022-11-01T06:39:21.652Z,78.34
2022-11-01T06:44:42.661Z,78.51
2022-11-01T06:50:04.619Z,78.69
2022-11-01T06:55:27.216Z,78.16
2022-11-01T07:00:47.964Z,77.97
2022-11-01T07:06:08.801Z,78.06
2022-11-01T07:11:31.693Z,77.80
2022-11-01T07:16:53.162Z,77.26
2022-11-01T07:22:14.818Z,77.05
2022-11-01T07:27:36.847Z,76.75
2022-11-01T07:33:04.173Z,76.77
2022-11-01T07:38:25.502Z,76.49
2022-11-01T07:43:46.270Z,76.38
2022-11-01T07:49:07.183Z,76.17
2022-11-01T07:54:28.016Z,76.06
2022-11-01T07:59:48.827Z,75.76
2022-11-01T08:05:11.302Z,75.24
2022-11-01T08:10:33.137Z,74.89
2022-11-01T08:15:54.290Z,74.52
2022-11-01T08:21:18.770Z,74.09
2022-11-01T08:26:39.693Z,74.17
2022-11-01T08:32:00.499Z,74.33
2022-11-01T08:37:21.183Z,74.14
2022-11-01T08:42:42.066Z,73.47
2022-11-01T08:48:05.001Z,73.41
2022-11-01T08:53:26.108Z,73.36
2022-11-01T08:58:49.378Z,74.15
2022-11-01T09:04:10.462Z,73.87
2022-11-01T09:09:31.375Z,74.20
2022-11-01T09:14:52.569Z,74.16
2022-11-01T09:20:15.214Z,73.76
2022-11-01T09:25:36.985Z,73.76
2022-11-01T09:31:19.544Z,72.75
2022-11-01T09:36:41.569Z,72.57
2022-11-01T09:42:06.447Z,72.31
2022-11-01T09:47:29.981Z,72.23
2022-11-01T09:52:53.007Z,72.17
2022-11-01T09:58:28.355Z,72.42
2022-11-01T10:04:26.846Z,72.00
2022-11-01T10:10:02.510Z,72.12
2022-11-01T10:15:32.368Z,72.10
2022-11-01T10:20:55.800Z,72.12
2022-11-01T10:26:21.450Z,72.22
2022-11-01T10:31:46.328Z,72.24
2022-11-01T10:37:22.715Z,72.30
2022-11-01T10:42:43.802Z,72.40
2022-11-01T10:48:05.345Z,71.43
2022-11-01T10:53:31.479Z,70.54
2022-11-01T10:59:04.487Z,69.44
2022-11-01T11:04:26.227Z,68.84
2022-11-01T11:09:50.162Z,68.79
2022-11-01T11:15:19.631Z,68.42
2022-11-01T11:20:41.129Z,68.56
2022-11-01T11:26:05.067Z,69.14
2022-11-01T11:31:32.614Z,69.79
2022-11-01T11:36:55.103Z,69.88
2022-11-01T11:42:16.071Z,70.27
2022-11-01T11:47:38.216Z,70.52
2022-11-01T11:53:15.602Z,70.27
2022-11-01T11:58:43.088Z,70.24
2022-11-01T12:04:19.145Z,70.00
2022-11-01T12:09:46.870Z,70.09
2022-11-01T12:15:29.934Z,70.24
2022-11-01T12:20:52.773Z,70.11
2022-11-01T12:26:16.855Z,69.54
2022-11-01T12:31:41.666Z,69.54
2022-11-01T12:37:41.485Z,69.88
2022-11-01T12:43:16.531Z,69.98
2022-11-01T12:48:43.072Z,70.21
2022-11-01T12:54:15.014Z,70.43
2022-11-01T12:59:38.665Z,70.60
2022-11-01T13:05:30.561Z,70.91
2022-11-01T13:10:52.844Z,70.80
2022-11-01T13:16:27.738Z,70.45
2022-11-01T13:22:38.019Z,70.41
2022-11-01T13:28:36.039Z,70.48
2022-11-01T13:34:33.576Z,70.77
2022-11-01T13:39:54.651Z,70.75
2022-11-01T13:45:30.599Z,70.61
2022-11-01T13:51:11.533Z,70.23
2022-11-01T13:56:40.203Z,69.99
2022-11-01T14:02:22.977Z,69.99
2022-11-01T14:07:43.964Z,70.19
2022-11-01T14:13:07.864Z,70.85
2022-11-01T14:18:49.884Z,71.07
2022-11-01T14:24:34.830Z,71.63
2022-11-01T14:29:56.819Z,71.56
2022-11-01T14:35:37.992Z,71.78
2022-11-01T14:41:00.317Z,71.64
2022-11-01T14:46:31.541Z,71.76
2022-11-01T14:52:02.786Z,71.91
2022-11-01T14:57:29.369Z,72.06
2022-11-01T15:02:50.688Z,72.04
2022-11-01T15:08:22.456Z,72.10
2022-11-01T15:13:45.602Z,72.24
2022-11-01T15:19:14.922Z,72.47
2022-11-01T15:24:36.010Z,72.75
2022-11-01T15:29:56.937Z,73.20
2022-11-01T15:35:26.374Z,73.53
2022-11-01T15:40:50.389Z,73.61
2022-11-01T15:46:11.492Z,73.66
2022-11-01T15:51:37.558Z,73.74
2022-11-01T15:57:03.253Z,74.26
2022-11-01T16:02:35.287Z,74.27
2022-11-01T16:07:56.559Z,74.16
2022-11-01T16:13:19.907Z,74.63
2022-11-01T16:18:45.126Z,74.99
2022-11-01T16:24:09.598Z,75.14
2022-11-01T16:29:42.673Z,75.35
2022-11-01T16:35:29.508Z,75.78
2022-11-01T16:40:54.996Z,75.24
2022-11-01T16:46:16.119Z,75.40
2022-11-01T16:51:36.986Z,76.03
2022-11-01T16:56:58.685Z,76.07
2022-11-01T17:02:23.782Z,75.93
2022-11-01T17:07:45.563Z,76.13
2022-11-01T17:13:07.934Z,76.11
2022-11-01T17:18:31.991Z,76.62
2022-11-01T17:23:53.277Z,76.43
2022-11-01T17:29:16.993Z,76.29
2022-11-01T17:34:38.879Z,76.63
2022-11-01T17:40:01.017Z,76.39
2022-11-01T17:45:22.855Z,76.46
2022-11-01T17:50:44.514Z,76.20
2022-11-01T17:56:06.462Z,76.55
2022-11-01T18:01:28.652Z,76.34
2022-11-01T18:06:50.501Z,76.34
2022-11-01T18:12:39.477Z,76.92
2022-11-01T18:18:15.589Z,76.85
2022-11-01T18:23:36.889Z,76.73
2022-11-01T18:29:10.259Z,76.72
2022-11-01T18:34:50.077Z,76.81
2022-11-01T18:40:11.490Z,76.83
2022-11-01T18:45:57.699Z,76.84
2022-11-01T18:51:26.616Z,77.09
2022-11-01T18:56:51.206Z,76.92
2022-11-01T19:02:12.406Z,76.93
2022-11-01T19:07:57.118Z,77.24
2022-11-01T19:13:23.730Z,77.17
2022-11-01T19:18:46.176Z,77.34
2022-11-01T19:24:29.771Z,77.54
2022-11-01T19:29:55.381Z,77.75
2022-11-01T19:35:22.084Z,77.75
2022-11-01T19:40:44.126Z,77.65
2022-11-01T19:46:04.935Z,77.59
2022-11-01T19:51:26.645Z,77.79
2022-11-01T19:56:47.630Z,77.71
2022-11-01T20:02:22.582Z,77.84
2022-11-01T20:07:43.535Z,77.83
2022-11-01T20:13:04.780Z,77.94
2022-11-01T20:18:26.993Z,77.66
2022-11-01T20:23:48.336Z,77.93
2022-11-01T20:29:09.565Z,78.18
2022-11-01T20:34:30.534Z,77.82
2022-11-01T20:39:51.640Z,77.91
2022-11-01T20:45:12.567Z,77.94
2022-11-01T20:50:33.999Z,77.93
2022-11-01T20:55:54.831Z,78.01
2022-11-01T21:01:16.271Z,78.32
2022-11-01T21:06:37.211Z,78.38
2022-11-01T21:11:59.043Z,78.50
2022-11-01T21:17:20.345Z,78.31
2022-11-01T21:22:41.283Z,78.47
2022-11-01T21:28:12.108Z,78.41
2022-11-01T21:33:41.665Z,78.50
2022-11-01T21:39:11.187Z,78.49
2022-11-01T21:44:39.743Z,78.57
2022-11-01T21:50:00.802Z,78.27
2022-11-01T21:55:21.684Z,78.79
2022-11-01T22:00:42.226Z,78.50
2022-11-01T22:06:03.115Z,78.23
2022-11-01T22:11:26.116Z,78.56
2022-11-01T22:16:50.109Z,78.63
2022-11-01T22:22:11.138Z,78.85
